Time;durP1;ratioP1;P1;durP2;ratioP2;P2;SDS_P1;SDS_P2;PMS_P1;PMS_P2;Temp;Humidity;BMP_temperature;BMP_pressure;BME280_temperature;BME280_humidity;BME280_pressure;Samples;Min_cycle;Max_cycle;Signal;HPM_P1;HPM_P2
2022/10/24 00:00:47;;;;;;;7.03;3.72;;;;;;;14.48;100.00;100332.19;5090490;28;20042;-71
2022/10/24 00:03:13;;;;;;;8.18;3.20;;;;;;;14.43;100.00;100319.47;5089302;28;20032;-71
2022/10/24 00:05:43;;;;;;;6.93;2.35;;;;;;;14.45;100.00;100328.13;5090585;28;20039;-71
2022/10/24 00:08:09;;;;;;;9.32;2.67;;;;;;;14.45;100.00;100317.38;5090444;28;20070;-71
2022/10/24 00:10:35;;;;;;;7.05;2.15;;;;;;;14.48;100.00;100322.28;5090220;28;20031;-71
2022/10/24 00:13:00;;;;;;;8.18;2.58;;;;;;;14.49;100.00;100325.81;5090235;28;20036;-71
2022/10/24 00:15:26;;;;;;;8.27;2.92;;;;;;;14.39;100.00;100304.94;5089969;28;20085;-71
2022/10/24 00:17:51;;;;;;;9.85;2.63;;;;;;;14.47;100.00;100309.94;5090375;28;20026;-71
2022/10/24 00:20:16;;;;;;;6.45;1.92;;;;;;;14.51;100.00;100310.25;5090990;28;20475;-71
2022/10/24 00:22:42;;;;;;;4.55;1.92;;;;;;;14.55;100.00;100319.50;5090311;28;20032;-71
2022/10/24 00:25:07;;;;;;;4.78;2.20;;;;;;;14.57;100.00;100312.06;5088787;28;20044;-71
2022/10/24 00:27:35;;;;;;;8.68;2.90;;;;;;;14.57;100.00;100305.88;5089980;28;20024;-71
2022/10/24 00:30:00;;;;;;;4.43;2.25;;;;;;;14.57;100.00;100300.50;5089629;28;20052;-72
2022/10/24 00:32:26;;;;;;;6.97;2.63;;;;;;;14.60;100.00;100297.34;5089926;28;20066;-71
2022/10/24 00:34:51;;;;;;;5.63;2.25;;;;;;;14.65;100.00;100302.81;5090170;28;20479;-71
2022/10/24 00:37:16;;;;;;;9.20;2.80;;;;;;;14.69;100.00;100309.31;5089848;28;20035;-71
2022/10/24 00:39:42;;;;;;;7.55;2.67;;;;;;;14.67;100.00;100296.16;5089357;28;20024;-71
2022/10/24 00:42:07;;;;;;;7.47;2.35;;;;;;;14.73;100.00;100307.81;5089851;28;20036;-71
2022/10/24 00:44:38;;;;;;;4.90;1.77;;;;;;;14.67;100.00;100298.84;5089884;28;20032;-71
2022/10/24 00:47:09;;;;;;;9.33;2.37;;;;;;;14.74;100.00;100297.88;5089665;28;20044;-71
2022/10/24 00:50:09;;;;;;;8.47;3.27;;;;;;;14.75;100.00;100312.94;5090018;28;20448;-71
2022/10/24 00:52:39;;;;;;;7.97;3.20;;;;;;;14.71;100.00;100306.41;5089743;28;20356;-71
2022/10/24 00:55:06;;;;;;;4.82;2.08;;;;;;;14.68;100.00;100303.16;5089275;28;20024;-71
2022/10/24 00:57:40;;;;;;;7.88;3.30;;;;;;;14.67;100.00;100300.69;5089062;28;20027;-65
2022/10/24 01:00:12;;;;;;;13.95;2.72;;;;;;;14.67;100.00;100295.31;5089374;28;20035;-65
2022/10/24 01:02:38;;;;;;;5.55;2.72;;;;;;;14.66;100.00;100293.69;5089513;28;20032;-65
2022/10/24 01:05:05;;;;;;;5.60;2.55;;;;;;;14.63;100.00;100289.63;5089521;28;20024;-65
2022/10/24 01:08:13;;;;;;;5.53;2.42;;;;;;;14.64;100.00;100293.13;5089566;28;20047;-65
2022/10/24 01:10:59;;;;;;;8.60;3.42;;;;;;;14.61;100.00;100288.22;5089486;28;20024;-65
2022/10/24 01:13:43;;;;;;;7.47;2.25;;;;;;;14.59;99.79;100290.31;5088854;28;20075;-65
2022/10/24 01:16:16;;;;;;;3.65;2.40;;;;;;;14.60;99.34;100289.28;5089549;28;20059;-65
2022/10/24 01:18:48;;;;;;;9.77;2.65;;;;;;;14.55;99.83;100286.50;5089483;28;20039;-65
2022/10/24 01:21:32;;;;;;;6.72;2.70;;;;;;;14.55;99.94;100294.56;5087994;28;20034;-65
2022/10/24 01:24:35;;;;;;;7.18;2.53;;;;;;;14.57;99.50;100289.78;5089304;28;20028;-65
2022/10/24 01:27:19;;;;;;;3.38;2.42;;;;;;;14.58;99.27;100284.16;5089370;28;20039;-66
2022/10/24 01:29:56;;;;;;;7.40;2.65;;;;;;;14.56;98.79;100275.50;5093580;28;20031;-65
2022/10/24 01:32:46;;;;;;;10.90;3.00;;;;;;;14.62;98.29;100279.94;5093338;28;20124;-65
2022/10/24 01:35:20;;;;;;;5.00;2.90;;;;;;;14.63;97.41;100281.56;5093366;28;20020;-65
2022/10/24 01:37:59;;;;;;;7.70;2.42;;;;;;;14.66;97.21;100286.47;5093375;28;20427;-65
2022/10/24 01:40:50;;;;;;;4.82;2.42;;;;;;;14.68;97.15;100272.81;5092964;28;20067;-65
2022/10/24 01:43:20;;;;;;;9.15;2.80;;;;;;;14.68;96.93;100270.94;5093342;28;20495;-65
2022/10/24 01:45:51;;;;;;;6.78;2.90;;;;;;;14.68;96.12;100268.25;5093286;28;20020;-66
2022/10/24 01:48:20;;;;;;;4.00;2.47;;;;;;;14.71;95.45;100269.66;5093142;28;20379;-65
2022/10/24 01:50:50;;;;;;;5.72;2.83;;;;;;;14.72;96.35;100270.47;5093249;28;20355;-65
2022/10/24 01:53:15;;;;;;;9.10;3.58;;;;;;;14.78;94.59;100262.28;5093113;28;20026;-65
2022/10/24 01:55:41;;;;;;;8.80;2.83;;;;;;;14.84;94.51;100260.50;5093181;28;20023;-65
2022/10/24 01:58:07;;;;;;;4.65;2.67;;;;;;;14.87;94.47;100262.72;5092667;28;20509;-65
2022/10/24 02:00:33;;;;;;;4.68;2.05;;;;;;;14.95;91.99;100253.44;5092891;28;20123;-65
2022/10/24 02:03:25;;;;;;;8.23;2.70;;;;;;;15.00;92.36;100256.25;5092979;28;20119;-65
2022/10/24 02:05:55;;;;;;;5.35;2.15;;;;;;;15.03;92.63;100255.75;5092891;28;20020;-65
2022/10/24 02:08:26;;;;;;;3.13;2.03;;;;;;;15.02;92.14;100249.56;5092939;28;20062;-66
2022/10/24 02:10:57;;;;;;;5.03;2.05;;;;;;;15.01;92.26;100252.47;5092913;28;20031;-65
2022/10/24 02:13:43;;;;;;;3.45;2.00;;;;;;;15.09;91.24;100247.56;5092533;28;20386;-65
2022/10/24 02:16:10;;;;;;;4.35;1.85;;;;;;;15.09;90.28;100244.03;5092563;28;20020;-65
2022/10/24 02:18:37;;;;;;;3.70;2.60;;;;;;;15.10;89.65;100249.19;5092838;28;20031;-65
2022/10/24 02:21:02;;;;;;;2.60;1.98;;;;;;;15.17;88.73;100254.41;5092589;28;20023;-65
2022/10/24 02:23:43;;;;;;;6.20;2.30;;;;;;;15.18;90.65;100256.03;5091299;28;20047;-65
2022/10/24 02:26:15;;;;;;;5.85;1.90;;;;;;;15.16;89.42;100250.06;5092396;28;20297;-65
2022/10/24 02:28:46;;;;;;;7.22;2.53;;;;;;;15.16;88.89;100254.63;5092189;28;20038;-65
2022/10/24 02:31:16;;;;;;;8.87;3.83;;;;;;;15.12;89.20;100249.75;5092522;28;20095;-65
2022/10/24 02:33:44;;;;;;;3.35;1.90;;;;;;;15.05;89.46;100243.72;5092452;28;20051;-65
2022/10/24 02:36:14;;;;;;;6.97;2.60;;;;;;;15.07;89.33;100248.84;5092236;28;20672;-66
2022/10/24 02:38:43;;;;;;;5.07;1.95;;;;;;;15.07;89.41;100251.53;5091937;28;20486;-65
2022/10/24 02:41:13;;;;;;;13.43;3.97;;;;;;;15.07;88.46;100257.72;5092067;28;20379;-66
2022/10/24 02:43:41;;;;;;;5.07;2.10;;;;;;;15.03;89.49;100251.19;5091635;28;20028;-66
2022/10/24 02:46:09;;;;;;;5.97;2.00;;;;;;;15.01;89.21;100249.78;5092150;28;20044;-66
2022/10/24 02:48:44;;;;;;;3.03;1.48;;;;;;;15.03;88.59;100253.06;5093992;28;20089;-65
2022/10/24 02:51:09;;;;;;;3.60;1.58;;;;;;;15.03;88.04;100247.69;5092069;28;20039;-65
2022/10/24 02:53:36;;;;;;;6.95;2.38;;;;;;;15.04;87.71;100243.97;5091984;28;20023;-65
2022/10/24 02:56:02;;;;;;;5.28;2.63;;;;;;;15.06;87.64;100250.72;5091935;28;20032;-65
2022/10/24 02:58:27;;;;;;;5.20;2.55;;;;;;;15.10;87.18;100246.50;5091941;28;20348;-66
2022/10/24 03:00:52;;;;;;;3.58;1.50;;;;;;;15.10;87.14;100254.53;5091045;28;20172;-65
2022/10/24 03:03:18;;;;;;;5.40;1.90;;;;;;;15.09;87.19;100250.25;5090577;28;20044;-65
2022/10/24 03:05:43;;;;;;;3.88;1.73;;;;;;;15.13;86.40;100251.38;5091777;28;20106;-65
2022/10/24 03:08:08;;;;;;;4.22;1.67;;;;;;;15.15;87.23;100253.03;5091846;28;20031;-65
2022/10/24 03:10:34;;;;;;;5.72;1.95;;;;;;;15.17;86.25;100253.56;5091648;28;20039;-65
2022/10/24 03:12:59;;;;;;;4.65;1.65;;;;;;;15.20;85.71;100255.81;5091664;28;20479;-66
2022/10/24 03:15:25;;;;;;;4.30;1.95;;;;;;;15.19;85.74;100254.97;5089724;28;20047;-65
2022/10/24 03:17:50;;;;;;;5.10;1.83;;;;;;;15.17;86.17;100257.09;5091577;28;20024;-65
2022/10/24 03:20:16;;;;;;;4.95;2.00;;;;;;;15.19;85.40;100254.97;5091436;28;20032;-65
2022/10/24 03:22:41;;;;;;;2.45;1.48;;;;;;;15.18;85.74;100260.59;5090000;28;20031;-65
2022/10/24 03:25:07;;;;;;;3.20;1.63;;;;;;;15.19;85.67;100254.97;5091230;28;20092;-65
2022/10/24 03:27:33;;;;;;;6.20;2.00;;;;;;;15.19;85.36;100249.59;5091301;28;20376;-66
2022/10/24 03:30:00;;;;;;;4.32;2.00;;;;;;;15.20;85.33;100259.28;5090301;28;20161;-65
2022/10/24 03:32:25;;;;;;;3.05;1.65;;;;;;;15.17;85.94;100253.56;5091122;28;21005;-65
2022/10/24 03:34:51;;;;;;;4.30;1.77;;;;;;;15.22;84.64;100245.59;5091189;28;20146;-66
2022/10/24 03:37:17;;;;;;;8.38;2.38;;;;;;;15.24;85.20;100248.88;5091252;28;20071;-66
2022/10/24 03:39:42;;;;;;;6.50;2.03;;;;;;;15.21;85.31;100246.69;5091114;28;20047;-66
2022/10/24 03:42:07;;;;;;;7.43;1.92;;;;;;;15.17;85.23;100250.88;5091107;28;20047;-65
2022/10/24 03:44:33;;;;;;;4.30;2.20;;;;;;;15.13;85.58;100240.63;5090194;28;20028;-65
2022/10/24 03:46:58;;;;;;;5.68;1.60;;;;;;;15.16;85.56;100251.97;5090618;28;20020;-65
2022/10/24 03:49:24;;;;;;;2.53;2.20;;;;;;;15.16;86.26;100241.22;5090844;28;20778;-65
2022/10/24 03:51:49;;;;;;;7.60;2.10;;;;;;;15.08;86.78;100237.03;5088649;28;20051;-65
2022/10/24 03:54:15;;;;;;;7.07;1.92;;;;;;;15.09;86.45;100234.13;5090972;28;20056;-65
2022/10/24 03:56:46;;;;;;;3.97;1.80;;;;;;;15.08;86.86;100243.22;5090896;28;20833;-65
2022/10/24 03:59:12;;;;;;;4.68;1.63;;;;;;;15.06;87.24;100231.09;5090808;28;20032;-65
2022/10/24 04:01:37;;;;;;;5.05;2.03;;;;;;;15.06;86.55;100231.94;5088856;28;20039;-66
2022/10/24 04:04:02;;;;;;;4.78;1.70;;;;;;;15.11;85.66;100245.44;5089691;28;20036;-65
2022/10/24 04:06:28;;;;;;;6.40;1.83;;;;;;;15.17;85.38;100235.59;5090320;28;20059;-66
2022/10/24 04:08:53;;;;;;;5.43;1.52;;;;;;;15.20;85.88;100237.00;5090486;28;20043;-65
2022/10/24 04:11:18;;;;;;;4.75;1.50;;;;;;;15.20;85.91;100239.69;5090578;28;20544;-65
2022/10/24 04:13:44;;;;;;;5.45;1.60;;;;;;;15.22;85.42;100233.00;5090402;28;20123;-66
2022/10/24 04:16:09;;;;;;;4.70;2.33;;;;;;;15.24;85.29;100230.06;5090007;28;20047;-65
2022/10/24 04:18:35;;;;;;;3.25;1.83;;;;;;;15.26;85.33;100236.03;5090161;28;20024;-65
2022/10/24 04:21:00;;;;;;;4.55;1.98;;;;;;;15.24;85.72;100236.25;5090344;28;20039;-65
2022/10/24 04:23:26;;;;;;;6.18;1.50;;;;;;;15.25;84.96;100237.91;5090239;28;20031;-66
2022/10/24 04:25:52;;;;;;;3.45;1.60;;;;;;;15.21;85.53;100234.06;5090263;28;20127;-65
2022/10/24 04:28:17;;;;;;;7.80;2.10;;;;;;;15.17;86.53;100235.59;5090128;28;20415;-65
2022/10/24 04:30:43;;;;;;;1.88;1.58;;;;;;;15.11;86.42;100220.44;5090213;28;20043;-65
2022/10/24 04:33:09;;;;;;;4.05;1.55;;;;;;;15.09;85.98;100234.13;5090135;28;20100;-65
2022/10/24 04:35:35;;;;;;;5.15;2.05;;;;;;;15.10;85.09;100227.69;5089927;28;20032;-65
2022/10/24 04:38:00;;;;;;;5.82;1.65;;;;;;;15.15;85.16;100237.72;5089952;28;20028;-65
2022/10/24 04:40:25;;;;;;;6.30;1.50;;;;;;;15.18;84.61;100241.78;5089965;28;20471;-66
2022/10/24 04:42:51;;;;;;;6.13;1.95;;;;;;;15.20;84.14;100226.25;5089929;28;20036;-65
2022/10/24 04:45:16;;;;;;;4.50;1.92;;;;;;;15.18;84.78;100234.53;5089492;28;20028;-65
2022/10/24 04:47:42;;;;;;;6.03;1.27;;;;;;;15.23;83.91;100236.50;5089222;28;20055;-65
2022/10/24 04:50:08;;;;;;;4.97;2.38;;;;;;;15.23;84.31;100240.00;5089826;28;20024;-65
2022/10/24 04:52:33;;;;;;;9.50;2.42;;;;;;;15.23;84.30;100231.94;5089819;28;20554;-65
2022/10/24 04:54:59;;;;;;;7.05;2.00;;;;;;;15.22;84.54;100237.53;5088568;28;20035;-65
2022/10/24 04:57:24;;;;;;;2.30;1.50;;;;;;;15.19;84.72;100227.28;5089707;28;20111;-65
2022/10/24 04:59:49;;;;;;;6.57;2.47;;;;;;;15.18;84.65;100239.91;5089757;28;20028;-65
2022/10/24 05:02:15;;;;;;;6.78;1.73;;;;;;;15.13;85.21;100237.94;5089466;28;20024;-65
2022/10/24 05:04:40;;;;;;;4.68;1.50;;;;;;;15.19;84.28;100246.09;5088903;28;20110;-65
2022/10/24 05:07:05;;;;;;;5.57;1.52;;;;;;;15.20;84.35;100251.25;5088745;28;20113;-65
2022/10/24 05:09:31;;;;;;;2.47;1.88;;;;;;;15.20;85.53;100250.44;5089380;28;20032;-65
2022/10/24 05:11:56;;;;;;;10.88;3.10;;;;;;;15.23;84.48;100255.31;5088786;28;20032;-65
2022/10/24 05:14:22;;;;;;;5.72;1.70;;;;;;;15.28;84.32;100244.66;5089673;28;20498;-66
2022/10/24 05:16:48;;;;;;;3.70;1.38;;;;;;;15.32;84.32;100246.59;5089564;28;20035;-65
2022/10/24 05:19:14;;;;;;;3.33;1.52;;;;;;;15.32;85.40;100251.16;5089029;28;20028;-65
2022/10/24 05:21:40;;;;;;;6.28;1.83;;;;;;;15.22;85.96;100243.75;5089352;28;20044;-65
2022/10/24 05:24:05;;;;;;;4.82;1.65;;;;;;;15.19;85.79;100248.78;5087999;28;20040;-66
2022/10/24 05:26:31;;;;;;;7.63;2.13;;;;;;;15.23;85.76;100260.69;5089101;28;20040;-66
2022/10/24 05:28:56;;;;;;;6.93;1.75;;;;;;;15.21;86.18;100262.78;5089417;28;20028;-65
2022/10/24 05:31:22;;;;;;;7.47;1.92;;;;;;;15.14;85.74;100246.81;5089108;28;20042;-66
2022/10/24 05:33:47;;;;;;;6.78;1.63;;;;;;;15.23;86.94;100255.31;5089184;28;20035;-65
2022/10/24 05:36:12;;;;;;;3.55;1.52;;;;;;;15.23;86.50;100266.88;5089147;28;20055;-65
2022/10/24 05:38:38;;;;;;;5.30;2.08;;;;;;;15.27;85.72;100259.97;5089244;28;20107;-65
2022/10/24 05:41:03;;;;;;;7.28;1.63;;;;;;;15.27;86.47;100259.13;5089399;28;20386;-65
2022/10/24 05:43:28;;;;;;;4.35;1.73;;;;;;;15.25;86.97;100270.13;5089149;28;20042;-66
2022/10/24 05:45:54;;;;;;;8.05;2.25;;;;;;;15.19;86.52;100246.91;5089205;28;20040;-65
2022/10/24 05:48:19;;;;;;;6.03;1.75;;;;;;;15.27;86.20;100262.66;5088193;28;20052;-65
2022/10/24 05:50:44;;;;;;;3.65;1.95;;;;;;;15.28;86.46;100264.28;5089063;28;20028;-65
2022/10/24 05:53:11;;;;;;;3.17;2.03;;;;;;;15.29;86.12;100252.47;5089042;28;20027;-65
2022/10/24 05:55:37;;;;;;;8.48;2.70;;;;;;;15.32;86.14;100269.97;5089052;28;20391;-65
2022/10/24 05:58:03;;;;;;;9.80;2.75;;;;;;;15.33;85.69;100269.72;5089044;28;20020;-65
2022/10/24 06:00:28;;;;;;;6.80;2.80;;;;;;;15.33;86.87;100274.31;5089167;28;20032;-66
2022/10/24 06:02:53;;;;;;;8.93;1.90;;;;;;;15.35;85.40;100280.22;5088961;28;20089;-65
2022/10/24 06:05:19;;;;;;;6.90;1.77;;;;;;;15.30;86.30;100274.75;5088842;28;20387;-65
2022/10/24 06:07:45;;;;;;;10.68;2.40;;;;;;;15.25;86.17;100270.13;5086968;28;20036;-65
2022/10/24 06:10:12;;;;;;;9.13;1.92;;;;;;;15.24;86.01;100275.75;5088762;28;20453;-66
2022/10/24 06:12:37;;;;;;;6.70;1.60;;;;;;;15.19;86.83;100271.09;5088920;28;20024;-65
2022/10/24 06:15:05;;;;;;;5.25;1.63;;;;;;;15.18;86.49;100272.16;5092125;28;20383;-65
2022/10/24 06:17:31;;;;;;;6.70;1.88;;;;;;;15.16;86.84;100284.19;5092686;28;20028;-65
2022/10/24 06:19:56;;;;;;;8.82;1.77;;;;;;;15.13;86.40;100272.06;5092126;28;20070;-65
2022/10/24 06:22:26;;;;;;;6.15;2.30;;;;;;;15.12;87.06;100281.19;5092583;28;20040;-65
2022/10/24 06:24:52;;;;;;;6.10;1.40;;;;;;;15.11;87.12;100282.22;5092491;28;20024;-65
2022/10/24 06:27:17;;;;;;;8.88;1.55;;;;;;;15.08;86.61;100283.50;5092299;28;20532;-66
2022/10/24 06:29:43;;;;;;;4.22;1.80;;;;;;;15.13;86.90;100293.53;5092355;28;20031;-65
2022/10/24 06:32:08;;;;;;;5.88;1.70;;;;;;;15.13;86.82;100291.66;5092306;28;20032;-65
2022/10/24 06:34:34;;;;;;;4.20;1.35;;;;;;;15.09;86.93;100285.16;5092308;28;20406;-65
2022/10/24 06:37:00;;;;;;;6.47;1.42;;;;;;;15.11;86.75;100293.78;5092292;28;20080;-67
2022/10/24 06:39:26;;;;;;;4.30;1.58;;;;;;;15.06;87.35;100284.81;5087893;28;20028;-67
2022/10/24 06:41:51;;;;;;;5.20;1.60;;;;;;;15.04;87.58;100287.75;5087908;28;20089;-67
2022/10/24 06:44:17;;;;;;;12.82;1.60;;;;;;;15.05;87.46;100293.94;5091817;28;20028;-72
2022/10/24 06:46:42;;;;;;;8.38;1.92;;;;;;;15.07;87.66;100303.38;5091796;28;20077;-72
2022/10/24 06:49:08;;;;;;;7.22;1.40;;;;;;;15.07;87.33;100314.13;5091622;28;20757;-72
2022/10/24 06:51:34;;;;;;;6.35;1.98;;;;;;;15.07;87.58;100308.75;5091153;28;20039;-72
2022/10/24 06:53:59;;;;;;;7.20;1.60;;;;;;;15.06;87.57;100317.03;5091728;28;20383;-72
2022/10/24 06:56:25;;;;;;;7.30;2.20;;;;;;;15.07;87.72;100316.81;5091864;28;20128;-71
2022/10/24 06:58:50;;;;;;;10.93;3.15;;;;;;;15.08;87.60;100323.81;5091660;28;20079;-71
2022/10/24 07:01:19;;;;;;;6.72;1.85;;;;;;;15.05;87.21;100313.53;5091841;28;20039;-71
2022/10/24 07:03:45;;;;;;;5.85;1.80;;;;;;;15.08;87.78;100326.50;5091823;28;20059;-72
2022/10/24 07:06:17;;;;;;;9.10;1.58;;;;;;;15.07;88.05;100329.44;5091592;28;20063;-71
2022/10/24 07:08:43;;;;;;;5.72;1.20;;;;;;;15.11;87.53;100335.94;5091199;28;20028;-71
2022/10/24 07:11:08;;;;;;;7.55;1.95;;;;;;;15.19;87.53;100343.63;5091564;28;20027;-71
2022/10/24 07:13:33;;;;;;;3.83;1.65;;;;;;;15.30;87.07;100342.78;5091741;28;20594;-71
2022/10/24 07:15:59;;;;;;;3.70;1.20;;;;;;;15.31;87.78;100343.56;5091402;28;20028;-74
2022/10/24 07:18:24;;;;;;;5.13;1.40;;;;;;;15.26;87.63;100336.22;5091200;28;20089;-71
2022/10/24 07:20:50;;;;;;;5.43;1.73;;;;;;;15.25;87.52;100353.41;5090807;28;20035;-72
2022/10/24 07:23:16;;;;;;;5.82;1.30;;;;;;;15.21;88.48;100359.50;5090447;28;20035;-71
2022/10/24 07:25:41;;;;;;;9.10;2.47;;;;;;;15.18;89.12;100357.31;5090321;28;20463;-71
2022/10/24 07:28:07;;;;;;;7.15;1.48;;;;;;;15.16;88.78;100351.34;5091313;28;20028;-71
2022/10/24 07:30:33;;;;;;;9.70;1.30;;;;;;;15.20;89.35;100356.00;5091186;28;20122;-71
2022/10/24 07:32:58;;;;;;;7.07;2.00;;;;;;;15.24;89.38;100357.13;5091041;28;20114;-71
2022/10/24 07:35:23;;;;;;;5.75;1.30;;;;;;;15.38;88.97;100359.53;5091186;28;20081;-71
2022/10/24 07:37:49;;;;;;;5.03;1.58;;;;;;;15.64;87.88;100368.88;5091197;28;20024;-71
2022/10/24 07:40:15;;;;;;;13.10;2.08;;;;;;;15.82;86.87;100365.19;5088137;28;20052;-71
2022/10/24 07:42:40;;;;;;;5.22;1.48;;;;;;;15.82;86.96;100378.63;5086455;28;20094;-70
2022/10/24 07:45:07;;;;;;;14.00;2.10;;;;;;;15.74;86.95;100374.47;5086535;28;20050;-69
2022/10/24 07:47:33;;;;;;;4.32;1.85;;;;;;;15.75;86.83;100394.94;5086777;28;20133;-69
2022/10/24 07:49:59;;;;;;;9.07;1.75;;;;;;;15.77;86.08;100377.50;5085302;28;20060;-69
2022/10/24 07:52:24;;;;;;;12.93;2.75;;;;;;;15.77;85.91;100382.88;5086200;28;20036;-68
2022/10/24 07:54:52;;;;;;;6.72;1.70;;;;;;;15.78;86.42;100387.19;5086371;28;20084;-72
2022/10/24 07:57:18;;;;;;;4.25;1.42;;;;;;;15.92;85.04;100386.88;5086773;28;20972;-74
2022/10/24 07:59:43;;;;;;;9.65;2.10;;;;;;;16.00;86.58;100389.16;5086323;28;20039;-69
2022/10/24 08:02:12;;;;;;;10.00;2.20;;;;;;;15.97;84.95;100398.53;5086510;28;20035;-71
2022/10/24 08:04:38;;;;;;;9.18;2.97;;;;;;;15.91;85.75;100429.09;5086512;28;20023;-71
2022/10/24 08:07:11;;;;;;;8.60;2.22;;;;;;;15.77;87.04;100415.16;5086149;28;20024;-71
2022/10/24 08:09:38;;;;;;;4.13;1.63;;;;;;;15.75;86.82;100422.63;5086219;28;20028;-71
2022/10/24 08:12:04;;;;;;;5.07;2.05;;;;;;;15.74;87.48;100429.06;5086164;28;20015;-70
2022/10/24 08:14:29;;;;;;;10.93;1.95;;;;;;;15.73;87.71;100426.63;5086375;28;20020;-71
2022/10/24 08:16:55;;;;;;;4.38;1.52;;;;;;;15.74;87.37;100422.88;5086602;28;20502;-70
2022/10/24 08:19:20;;;;;;;5.50;1.55;;;;;;;15.72;87.46;100425.00;5085910;28;20479;-71
2022/10/24 08:21:45;;;;;;;8.73;1.48;;;;;;;15.71;87.80;100431.41;5084590;28;20395;-71
2022/10/24 08:24:11;;;;;;;4.85;1.50;;;;;;;15.72;87.69;100430.38;5086225;28;20035;-70
2022/10/24 08:26:39;;;;;;;5.97;1.30;;;;;;;15.76;87.53;100431.50;5085719;28;20406;-71
2022/10/24 08:29:09;;;;;;;9.18;2.45;;;;;;;15.74;87.05;100439.00;5085871;28;20040;-73
2022/10/24 08:31:35;;;;;;;5.70;1.42;;;;;;;15.82;87.09;100441.28;5085018;28;20057;-69
2022/10/24 08:34:00;;;;;;;7.90;1.38;;;;;;;15.92;86.77;100437.97;5086323;28;20116;-69
2022/10/24 08:36:28;;;;;;;10.98;1.55;;;;;;;16.06;86.55;100454.63;5085727;28;20035;-72
2022/10/24 08:38:54;;;;;;;1.98;1.15;;;;;;;16.07;85.42;100445.50;5084546;28;20063;-74
2022/10/24 08:41:32;;;;;;;4.75;2.30;;;;;;;16.15;85.14;100443.22;5085084;28;20063;-73
2022/10/24 08:44:01;;;;;;;6.72;1.40;;;;;;;16.21;84.74;100438.75;5085115;28;20028;-72
2022/10/24 08:46:29;;;;;;;6.93;1.95;;;;;;;16.32;83.14;100459.41;5084993;28;20020;-71
2022/10/24 08:49:42;;;;;;;12.25;1.27;;;;;;;16.26;81.95;100446.91;5085376;28;20097;-69
2022/10/24 08:52:23;;;;;;;5.10;1.33;;;;;;;16.20;83.24;100445.19;5079428;28;20032;-71
2022/10/24 08:54:50;;;;;;;6.47;1.27;;;;;;;16.22;83.28;100451.16;5084680;28;20510;-71
2022/10/24 08:57:23;;;;;;;5.15;1.95;;;;;;;16.24;83.78;100462.47;5085465;28;20020;-71
2022/10/24 08:59:51;;;;;;;9.55;2.72;;;;;;;16.30;83.84;100460.69;5085436;28;20034;-69
2022/10/24 09:02:25;;;;;;;6.43;2.17;;;;;;;16.32;82.30;100458.56;5084889;28;20110;-70
2022/10/24 09:04:57;;;;;;;5.25;1.30;;;;;;;16.33;81.27;100452.94;5085195;28;20034;-70
2022/10/24 09:07:23;;;;;;;6.65;1.67;;;;;;;16.33;81.58;100461.03;5085078;28;20032;-71
2022/10/24 09:09:51;;;;;;;7.53;1.73;;;;;;;16.37;81.78;100462.19;5084846;28;20038;-70
2022/10/24 09:12:19;;;;;;;7.15;1.40;;;;;;;16.43;81.18;100458.50;5085389;28;20363;-70
2022/10/24 09:14:50;;;;;;;11.45;2.95;;;;;;;16.49;81.73;100463.97;5084778;28;20471;-72
2022/10/24 09:17:45;;;;;;;13.77;2.10;;;;;;;16.58;81.36;100467.84;5085032;28;20110;-70
2022/10/24 09:20:28;;;;;;;5.13;1.48;;;;;;;16.65;81.68;100465.81;5080560;28;20761;-70
2022/10/24 09:22:57;;;;;;;8.32;1.67;;;;;;;16.62;80.13;100459.03;5085010;28;20020;-71
2022/10/24 09:25:28;;;;;;;8.82;1.67;;;;;;;16.70;79.53;100473.16;5085358;28;20120;-72
2022/10/24 09:27:56;;;;;;;5.40;3.25;;;;;;;16.70;78.98;100478.56;5088067;28;20035;-71
2022/10/24 09:30:25;;;;;;;9.85;2.13;;;;;;;16.74;79.97;100480.50;5089245;28;20031;-71
2022/10/24 09:32:51;;;;;;;4.35;1.15;;;;;;;16.82;80.05;100490.06;5089253;28;20043;-72
2022/10/24 09:35:23;;;;;;;7.40;2.15;;;;;;;16.80;79.69;100468.78;5089345;28;20024;-72
2022/10/24 09:37:57;;;;;;;5.80;1.27;;;;;;;16.81;79.13;100486.56;5089151;28;20923;-72
2022/10/24 09:40:26;;;;;;;4.65;1.77;;;;;;;16.80;79.04;100494.91;5089222;28;20479;-72
2022/10/24 09:42:57;;;;;;;6.10;1.52;;;;;;;16.82;79.96;100492.75;5089114;28;20024;-71
2022/10/24 09:45:31;;;;;;;5.40;1.40;;;;;;;16.89;79.03;100490.72;5089216;28;20578;-72
2022/10/24 09:48:00;;;;;;;6.10;1.70;;;;;;;16.89;78.31;100509.56;5088493;28;20059;-72
2022/10/24 09:50:26;;;;;;;7.90;1.83;;;;;;;16.84;77.91;100502.22;5093094;28;20067;-66
2022/10/24 09:52:56;;;;;;;3.65;1.23;;;;;;;16.98;78.29;100505.41;5093113;28;20101;-66
2022/10/24 09:55:26;;;;;;;6.45;1.45;;;;;;;17.08;76.54;100507.41;5092712;28;20032;-65
2022/10/24 09:57:53;;;;;;;13.63;2.88;;;;;;;17.09;77.73;100503.66;5092871;28;20028;-66
2022/10/24 10:00:23;;;;;;;8.35;2.17;;;;;;;17.14;76.83;100516.41;5093111;28;20052;-66
2022/10/24 10:02:57;;;;;;;9.15;2.03;;;;;;;17.15;77.18;100531.50;5092884;28;20494;-66
2022/10/24 10:05:23;;;;;;;6.00;1.42;;;;;;;17.12;76.84;100516.63;5092732;28;20024;-66
2022/10/24 10:07:50;;;;;;;8.07;2.33;;;;;;;17.19;78.13;100524.56;5092643;28;20495;-66
2022/10/24 10:10:18;;;;;;;8.88;1.65;;;;;;;17.25;77.36;100531.63;5092585;28;20019;-66
2022/10/24 10:12:53;;;;;;;7.68;1.65;;;;;;;17.27;77.03;100529.50;5093181;28;20035;-66
2022/10/24 10:15:39;;;;;;;7.13;1.60;;;;;;;17.29;76.57;100536.28;5092184;28;20078;-66
2022/10/24 10:18:47;;;;;;;5.90;1.30;;;;;;;17.22;77.03;100546.41;5084652;28;20093;-66
2022/10/24 10:21:15;;;;;;;4.32;1.67;;;;;;;17.20;77.08;100535.06;5090323;28;20479;-65
2022/10/24 10:23:42;;;;;;;10.55;1.88;;;;;;;17.08;76.38;100542.44;5092524;28;20107;-66
2022/10/24 10:26:40;;;;;;;7.05;1.83;;;;;;;17.01;77.49;100539.94;5092436;28;20031;-66
2022/10/24 10:29:21;;;;;;;13.63;1.60;;;;;;;16.94;78.03;100550.03;5092528;28;20474;-66
2022/10/24 10:32:24;;;;;;;13.10;2.92;;;;;;;16.77;77.63;100541.16;5092381;28;20145;-66
2022/10/24 10:35:09;;;;;;;5.35;2.83;;;;;;;16.52;77.67;100555.00;5091412;28;20372;-66
2022/10/24 10:37:43;;;;;;;3.85;1.52;;;;;;;16.61;78.40;100548.13;5092304;28;20031;-66
2022/10/24 10:40:44;;;;;;;9.82;2.58;;;;;;;16.93;78.07;100563.78;5092359;28;20028;-66
2022/10/24 10:43:10;;;;;;;8.15;1.80;;;;;;;17.09;77.45;100573.72;5079924;28;20074;-66
2022/10/24 10:45:46;;;;;;;6.03;2.38;;;;;;;17.17;77.08;100575.19;5092210;28;20058;-66
2022/10/24 10:48:27;;;;;;;7.82;1.60;;;;;;;17.18;76.11;100574.13;5091943;28;20048;-65
2022/10/24 10:51:02;;;;;;;10.75;2.15;;;;;;;17.12;76.00;100577.81;5091859;28;20034;-71
2022/10/24 10:53:51;;;;;;;9.70;2.17;;;;;;;17.02;77.21;100576.56;5092062;28;20024;-71
2022/10/24 10:56:45;;;;;;;5.95;1.98;;;;;;;16.96;76.42;100587.53;5091935;28;20043;-71
2022/10/24 10:59:44;;;;;;;8.95;1.60;;;;;;;16.89;77.95;100587.69;5086606;28;20604;-71
2022/10/24 11:02:20;;;;;;;6.05;1.90;;;;;;;16.77;79.46;100609.31;5091899;28;20111;-71
2022/10/24 11:04:57;;;;;;;7.53;2.60;;;;;;;16.35;84.15;100608.81;5091849;28;20032;-71
2022/10/24 11:07:49;;;;;;;8.82;2.92;;;;;;;15.97;88.00;100607.53;5091929;28;20039;-72
2022/10/24 11:10:20;;;;;;;7.07;1.73;;;;;;;15.64;88.58;100600.91;5091763;28;20027;-71
2022/10/24 11:12:45;;;;;;;5.38;1.20;;;;;;;15.43;89.94;100604.19;5091699;28;20020;-71
2022/10/24 11:15:21;;;;;;;4.00;1.27;;;;;;;15.29;91.66;100604.44;5091519;28;20035;-72
2022/10/24 11:17:50;;;;;;;5.20;1.75;;;;;;;15.22;92.11;100605.59;5090950;28;20554;-71
2022/10/24 11:20:18;;;;;;;7.32;2.30;;;;;;;15.16;91.99;100598.47;5091501;28;20138;-71
2022/10/24 11:22:53;;;;;;;4.85;1.85;;;;;;;15.20;94.37;100603.16;5091496;28;20437;-71
2022/10/24 11:25:24;;;;;;;6.28;1.90;;;;;;;15.31;95.86;100599.66;5091244;28;20035;-71
2022/10/24 11:28:01;;;;;;;8.20;2.47;;;;;;;15.45;95.77;100600.22;5088880;28;20028;-70
2022/10/24 11:31:00;;;;;;;7.10;2.40;;;;;;;15.67;95.67;100599.63;5087223;28;20065;-73
2022/10/24 11:33:33;;;;;;;6.47;1.98;;;;;;;15.86;95.20;100608.38;5078315;28;20044;-70
2022/10/24 11:36:11;;;;;;;6.43;1.60;;;;;;;15.97;93.90;100608.34;5087092;28;20421;-75